Time;durP1;ratioP1;P1;durP2;ratioP2;P2;SDS_P1;SDS_P2;PMS_P1;PMS_P2;Temp;Humidity;BMP_temperature;BMP_pressure;BME280_temperature;BME280_humidity;BME280_pressure;Samples;Min_cycle;Max_cycle;Signal;HPM_P1;HPM_P2
2023/05/13 00:00:46;;;;;;;9.35;4.60;;;;;;;12.46;93.32;102174.19;7359381;19;20010;-65
2023/05/13 00:03:14;;;;;;;13.30;4.95;;;;;;;12.46;93.44;102182.94;7361044;19;20018;-65
2023/05/13 00:05:41;;;;;;;13.30;4.60;;;;;;;12.47;93.33;102175.84;7359555;19;20018;-65
2023/05/13 00:08:11;;;;;;;16.60;5.20;;;;;;;12.46;93.28;102177.66;7362689;19;20049;-64
2023/05/13 00:10:38;;;;;;;15.05;5.95;;;;;;;12.44;93.50;102169.84;7359331;19;20018;-64
2023/05/13 00:13:06;;;;;;;17.63;5.78;;;;;;;12.44;93.57;102158.50;7361836;19;20396;-65
2023/05/13 00:15:34;;;;;;;10.73;5.45;;;;;;;12.38;92.60;102164.28;7359948;19;20368;-67
2023/05/13 00:18:01;;;;;;;15.07;5.40;;;;;;;12.41;92.59;102156.09;7360681;19;20019;-65
2023/05/13 00:20:29;;;;;;;14.13;4.78;;;;;;;12.34;92.95;102153.13;7358774;19;20451;-65
2023/05/13 00:22:56;;;;;;;16.42;5.93;;;;;;;12.34;93.52;102149.69;7362162;19;20018;-65
2023/05/13 00:25:23;;;;;;;12.30;4.43;;;;;;;12.33;93.37;102140.94;7361112;19;20011;-65
2023/05/13 00:27:51;;;;;;;15.85;4.90;;;;;;;12.32;93.31;102149.81;7362441;19;20007;-64
2023/05/13 00:30:18;;;;;;;12.25;4.43;;;;;;;12.29;92.60;102142.13;7357800;19;20682;-65
2023/05/13 00:32:46;;;;;;;10.80;4.53;;;;;;;12.29;92.90;102147.41;7361575;19;20829;-67
2023/05/13 00:35:13;;;;;;;12.57;4.85;;;;;;;12.31;93.18;102147.28;7358123;19;20046;-65
2023/05/13 00:37:41;;;;;;;13.15;4.80;;;;;;;12.29;93.55;102142.13;7359101;19;20010;-65
2023/05/13 00:40:18;;;;;;;17.45;4.97;;;;;;;12.30;93.48;102145.63;7362086;19;20014;-65
2023/05/13 00:42:46;;;;;;;11.73;4.78;;;;;;;12.31;93.31;102142.00;7362937;19;20024;-66
2023/05/13 00:45:14;;;;;;;15.15;4.97;;;;;;;12.32;93.25;102149.81;7358435;19;20779;-65
2023/05/13 00:47:42;;;;;;;13.68;4.60;;;;;;;12.30;93.57;102156.16;7359386;19;20022;-65
2023/05/13 00:50:10;;;;;;;12.95;4.95;;;;;;;12.30;93.22;102151.72;7355656;19;20041;-64
2023/05/13 00:52:38;;;;;;;14.32;4.30;;;;;;;12.28;93.08;102156.31;7359935;19;20010;-67
2023/05/13 00:55:07;;;;;;;16.23;4.28;;;;;;;12.15;93.57;102153.03;7361484;19;20014;-64
2023/05/13 00:57:36;;;;;;;16.13;5.45;;;;;;;12.18;93.75;102163.34;7358612;19;20993;-65
2023/05/13 01:00:04;;;;;;;16.60;5.18;;;;;;;12.16;94.22;102144.16;7357920;19;20019;-65
2023/05/13 01:02:45;;;;;;;13.25;5.88;;;;;;;12.17;94.04;102153.75;7361547;19;20014;-66
2023/05/13 01:05:23;;;;;;;9.10;4.80;;;;;;;12.19;94.19;102151.00;7356733;19;20102;-65
2023/05/13 01:08:07;;;;;;;13.18;4.50;;;;;;;12.19;94.32;102143.88;7360523;19;20014;-64
2023/05/13 01:10:36;;;;;;;17.63;5.15;;;;;;;12.23;94.18;102147.13;7358355;19;20022;-64
2023/05/13 01:13:10;;;;;;;15.00;4.90;;;;;;;12.21;93.57;102146.41;7368012;19;20372;-65
2023/05/13 01:15:44;;;;;;;14.45;5.13;;;;;;;12.21;94.21;102146.41;7365769;19;20588;-64
2023/05/13 01:18:18;;;;;;;14.27;5.25;;;;;;;12.22;94.23;102141.00;7365269;19;20097;-64
2023/05/13 01:20:46;;;;;;;11.70;4.38;;;;;;;12.22;93.78;102141.00;7363026;19;20029;-64
2023/05/13 01:23:13;;;;;;;14.70;5.30;;;;;;;12.23;94.57;102133.94;7365061;19;20026;-65
2023/05/13 01:25:41;;;;;;;17.63;5.28;;;;;;;12.27;94.93;102141.44;7367284;19;20026;-65
2023/05/13 01:28:08;;;;;;;13.02;5.22;;;;;;;12.19;93.33;102143.09;7365889;19;20475;-65
2023/05/13 01:30:36;;;;;;;11.43;4.82;;;;;;;12.16;93.63;102149.44;7364942;19;20478;-65
2023/05/13 01:33:04;;;;;;;14.20;4.72;;;;;;;12.16;94.23;102148.59;7367463;19;20134;-65
2023/05/13 01:35:34;;;;;;;15.88;4.70;;;;;;;12.14;93.04;102142.63;7367790;19;21024;-65
2023/05/13 01:38:03;;;;;;;12.63;4.45;;;;;;;12.14;93.59;102145.28;7368536;19;20030;-66
2023/05/13 01:40:31;;;;;;;13.05;4.38;;;;;;;12.13;93.36;102149.72;7366847;19;20026;-65
2023/05/13 01:42:59;;;;;;;14.05;5.00;;;;;;;12.12;93.40;102148.03;7368438;19;20134;-65
2023/05/13 01:45:28;;;;;;;12.32;4.65;;;;;;;12.13;93.68;102146.22;7363551;19;20014;-64
2023/05/13 01:47:56;;;;;;;19.17;6.03;;;;;;;12.13;94.30;102156.78;7363751;19;21917;-63
2023/05/13 01:50:24;;;;;;;11.65;4.15;;;;;;;12.15;93.86;102147.75;7363112;19;21203;-65
2023/05/13 01:52:51;;;;;;;11.55;4.60;;;;;;;12.13;92.66;102143.59;7364018;19;20006;-65
2023/05/13 01:55:18;;;;;;;10.75;4.82;;;;;;;12.11;92.59;102146.34;7366397;19;20976;-65
2023/05/13 01:57:46;;;;;;;11.95;4.47;;;;;;;12.07;92.87;102139.69;7364731;19;20021;-65
2023/05/13 02:00:14;;;;;;;11.88;4.95;;;;;;;12.06;93.28;102142.44;7363824;19;20031;-66
2023/05/13 02:02:45;;;;;;;17.17;4.72;;;;;;;12.05;93.65;102140.75;7366777;19;20463;-65
2023/05/13 02:05:13;;;;;;;11.77;4.72;;;;;;;12.07;93.13;102144.94;7360953;19;20010;-64
2023/05/13 02:07:40;;;;;;;17.42;4.85;;;;;;;12.00;93.34;102144.63;7369315;19;20028;-64
2023/05/13 02:10:09;;;;;;;11.15;5.50;;;;;;;11.86;94.23;102144.94;7363725;19;20014;-64
2023/05/13 02:12:36;;;;;;;21.10;5.78;;;;;;;11.90;94.30;102148.16;7365050;19;20017;-65
2023/05/13 02:15:04;;;;;;;11.40;5.35;;;;;;;11.88;94.79;102144.84;7363012;19;20018;-65
2023/05/13 02:17:32;;;;;;;14.82;5.13;;;;;;;11.86;94.82;102149.38;7364895;19;20017;-65
2023/05/13 02:19:59;;;;;;;8.40;4.78;;;;;;;11.85;94.84;102145.91;7364288;19;20117;-65
2023/05/13 02:22:26;;;;;;;13.50;6.07;;;;;;;11.83;95.43;102147.84;7365165;19;20042;-64
2023/05/13 02:24:54;;;;;;;12.80;4.80;;;;;;;11.87;95.83;102153.72;7361558;19;20035;-64
2023/05/13 02:27:22;;;;;;;22.35;6.10;;;;;;;11.89;95.73;102149.97;7365079;19;20170;-65
2023/05/13 02:29:49;;;;;;;14.85;4.95;;;;;;;11.92;94.85;102156.78;7363981;19;20049;-65
2023/05/13 02:32:17;;;;;;;10.45;4.25;;;;;;;11.94;94.41;102154.84;7361505;19;20018;-65
2023/05/13 02:34:44;;;;;;;10.30;4.85;;;;;;;11.95;94.75;102146.81;7364949;19;20134;-66
2023/05/13 02:37:12;;;;;;;9.35;4.22;;;;;;;11.99;94.78;102148.22;7362103;19;20018;-64
2023/05/13 02:39:39;;;;;;;13.00;4.75;;;;;;;12.02;94.88;102152.41;7364701;19;20026;-64
2023/05/13 02:42:07;;;;;;;8.57;4.28;;;;;;;12.02;94.66;102157.69;7362915;19;20026;-64
2023/05/13 02:44:37;;;;;;;11.90;3.83;;;;;;;12.03;94.26;102153.25;7361627;19;20018;-64
2023/05/13 02:47:04;;;;;;;16.23;5.90;;;;;;;11.97;94.21;102155.44;7361751;19;20389;-65
2023/05/13 02:49:32;;;;;;;10.07;4.50;;;;;;;11.98;94.31;102157.13;7364224;19;20913;-65
2023/05/13 02:51:59;;;;;;;14.75;5.43;;;;;;;11.99;94.66;102144.75;7363157;19;20026;-65
2023/05/13 02:54:27;;;;;;;7.13;4.40;;;;;;;11.99;94.41;102157.94;7364749;19;21719;-65
2023/05/13 02:56:54;;;;;;;12.02;5.00;;;;;;;12.00;94.29;102152.53;7362269;19;20010;-65
2023/05/13 02:59:22;;;;;;;11.98;5.50;;;;;;;11.98;94.57;102151.00;7355666;19;20010;-65
2023/05/13 03:01:49;;;;;;;12.88;4.40;;;;;;;11.99;94.66;102147.38;7360559;19;20043;-64
2023/05/13 03:04:16;;;;;;;12.95;4.47;;;;;;;12.06;94.44;102145.91;7362157;19;20055;-65
2023/05/13 03:06:45;;;;;;;29.77;6.18;;;;;;;12.12;94.79;102149.84;7363405;19;20014;-65
2023/05/13 03:09:12;;;;;;;14.10;4.88;;;;;;;12.14;94.54;102147.91;7362442;19;20809;-63
2023/05/13 03:11:40;;;;;;;9.48;4.70;;;;;;;12.13;93.47;102152.34;7364297;19;20786;-64
2023/05/13 03:14:07;;;;;;;14.30;5.78;;;;;;;12.13;93.80;102149.72;7364358;19;20015;-65
2023/05/13 03:16:34;;;;;;;15.23;5.30;;;;;;;12.15;93.70;102146.94;7361482;19;20006;-64
2023/05/13 03:19:02;;;;;;;16.33;6.22;;;;;;;12.13;93.41;102146.22;7365207;19;20018;-64
2023/05/13 03:21:29;;;;;;;13.23;6.25;;;;;;;12.08;93.81;102151.06;7360988;19;20009;-65
2023/05/13 03:23:57;;;;;;;16.20;5.55;;;;;;;12.12;93.10;102155.94;7363821;19;20086;-65
2023/05/13 03:26:25;;;;;;;20.02;6.13;;;;;;;12.10;92.71;102151.75;7364632;19;21781;-64
2023/05/13 03:28:53;;;;;;;20.83;6.53;;;;;;;12.05;93.15;102152.16;7360598;19;20010;-64
2023/05/13 03:31:20;;;;;;;11.68;5.35;;;;;;;11.98;93.21;102148.38;7361609;19;20010;-65
2023/05/13 03:33:48;;;;;;;18.70;6.18;;;;;;;11.96;94.11;102151.13;7363198;19;20630;-64
2023/05/13 03:36:15;;;;;;;14.10;6.15;;;;;;;12.00;94.19;102138.50;7358860;19;20647;-64
2023/05/13 03:38:42;;;;;;;18.13;6.93;;;;;;;11.94;93.59;102145.13;7361263;19;20015;-64
2023/05/13 03:41:10;;;;;;;15.05;6.70;;;;;;;11.96;94.02;102151.13;7360334;19;20026;-65
2023/05/13 03:43:38;;;;;;;13.55;6.60;;;;;;;11.97;94.26;102158.09;7360497;19;20962;-64
2023/05/13 03:46:05;;;;;;;11.75;6.68;;;;;;;11.98;93.53;102153.66;7360844;19;20025;-65
2023/05/13 03:48:32;;;;;;;14.50;7.20;;;;;;;11.88;93.91;102153.59;7359288;19;20021;-64
2023/05/13 03:51:01;;;;;;;19.20;6.80;;;;;;;11.90;93.47;102156.06;7361246;19;20021;-65
2023/05/13 03:53:28;;;;;;;13.02;6.28;;;;;;;11.91;93.54;102152.47;7361691;19;20022;-65
2023/05/13 03:55:55;;;;;;;14.05;6.82;;;;;;;11.88;94.09;102152.75;7361058;19;20016;-64
2023/05/13 03:58:23;;;;;;;12.93;6.10;;;;;;;11.86;93.77;102154.66;7360977;19;20014;-64
2023/05/13 04:00:50;;;;;;;15.38;6.40;;;;;;;11.89;94.02;102159.66;7356933;19;20092;-64
2023/05/13 04:03:18;;;;;;;31.58;7.38;;;;;;;11.92;94.14;102152.34;7362024;19;20618;-65
2023/05/13 04:05:46;;;;;;;25.42;7.38;;;;;;;11.92;94.01;102155.00;7357570;19;20117;-64
2023/05/13 04:08:13;;;;;;;13.60;6.65;;;;;;;11.94;94.32;102160.97;7362365;19;20029;-65
2023/05/13 04:10:41;;;;;;;15.32;6.88;;;;;;;11.88;93.82;102155.38;7358461;19;20363;-65
2023/05/13 04:13:08;;;;;;;15.38;5.70;;;;;;;11.88;93.51;102161.50;7360601;19;20029;-65
2023/05/13 04:15:36;;;;;;;15.43;5.53;;;;;;;11.89;94.16;102165.78;7357457;19;20029;-64
2023/05/13 04:18:03;;;;;;;21.70;6.72;;;;;;;11.90;95.23;102166.63;7360860;19;20007;-64
2023/05/13 04:20:31;;;;;;;17.90;6.28;;;;;;;11.91;95.29;102166.50;7359374;19;20089;-65
2023/05/13 04:22:58;;;;;;;13.55;6.53;;;;;;;11.92;95.24;102162.91;7362585;19;20014;-65
2023/05/13 04:25:25;;;;;;;13.73;7.18;;;;;;;11.95;94.33;102167.91;7362068;19;20012;-65
2023/05/13 04:27:53;;;;;;;13.60;5.72;;;;;;;11.95;94.56;102172.34;7363946;19;20018;-64
2023/05/13 04:30:20;;;;;;;13.75;5.57;;;;;;;11.97;94.17;102167.78;7358674;19;20114;-64
2023/05/13 04:32:48;;;;;;;11.57;5.43;;;;;;;11.96;93.58;102163.47;7358775;19;20022;-63
2023/05/13 04:35:16;;;;;;;12.15;5.05;;;;;;;11.94;93.63;102170.66;7359209;19;20022;-64
2023/05/13 04:37:43;;;;;;;10.15;4.78;;;;;;;11.95;93.79;102169.72;7360828;19;20787;-64
2023/05/13 04:40:11;;;;;;;17.63;4.75;;;;;;;11.94;93.81;102173.31;7360018;19;20018;-64
2023/05/13 04:42:39;;;;;;;11.57;5.57;;;;;;;11.94;93.97;102168.88;7361930;19;20018;-69
2023/05/13 04:45:07;;;;;;;12.45;4.20;;;;;;;11.97;93.94;102170.44;7358025;19;20094;-64
2023/05/13 04:47:36;;;;;;;11.02;4.57;;;;;;;11.96;93.47;102174.03;7356900;19;20891;-65
2023/05/13 04:50:05;;;;;;;10.63;4.70;;;;;;;11.97;93.73;102176.53;7359009;19;20831;-64
2023/05/13 04:52:33;;;;;;;10.27;4.45;;;;;;;11.94;93.53;102166.22;7359624;19;20006;-65
2023/05/13 04:55:00;;;;;;;10.15;4.43;;;;;;;11.93;93.75;102166.38;7359041;19;20017;-64
2023/05/13 04:57:28;;;;;;;13.70;4.63;;;;;;;11.93;93.57;102176.94;7361558;19;20575;-65
2023/05/13 04:59:55;;;;;;;13.38;5.53;;;;;;;11.91;93.53;102177.06;7357746;19;20018;-64
2023/05/13 05:02:22;;;;;;;10.52;4.18;;;;;;;11.93;93.63;102182.22;7357342;19;20014;-65
2023/05/13 05:04:50;;;;;;;8.73;3.97;;;;;;;11.91;93.59;102174.41;7359412;19;20036;-65
2023/05/13 05:07:17;;;;;;;9.35;4.43;;;;;;;11.90;93.52;102175.38;7360850;19;20011;-64
2023/05/13 05:09:45;;;;;;;20.33;4.43;;;;;;;11.89;94.11;102183.41;7357721;19;20019;-64
2023/05/13 05:12:13;;;;;;;9.25;4.22;;;;;;;11.93;94.44;102179.56;7360693;19;20106;-64
2023/05/13 05:14:40;;;;;;;11.40;4.35;;;;;;;11.95;93.73;102182.91;7356917;19;20476;-65
2023/05/13 05:17:08;;;;;;;16.13;4.70;;;;;;;11.94;93.47;102183.84;7358297;19;20014;-65
2023/05/13 05:19:35;;;;;;;9.57;3.88;;;;;;;11.94;93.79;102183.84;7357223;19;20015;-65
2023/05/13 05:22:03;;;;;;;10.43;3.85;;;;;;;11.97;94.36;102188.91;7358888;19;20035;-65
2023/05/13 05:24:30;;;;;;;9.93;3.85;;;;;;;11.99;93.97;102189.59;7358943;19;20562;-65
2023/05/13 05:26:58;;;;;;;8.75;3.75;;;;;;;12.00;93.57;102189.47;7357241;19;20023;-64
2023/05/13 05:29:25;;;;;;;10.52;3.55;;;;;;;12.00;93.89;102196.53;7356078;19;20018;-65
2023/05/13 05:31:52;;;;;;;10.25;3.95;;;;;;;12.02;93.50;102194.63;7357697;19;20022;-64
2023/05/13 05:34:20;;;;;;;13.50;3.90;;;;;;;12.03;93.40;102200.75;7359011;19;20509;-65
2023/05/13 05:36:47;;;;;;;13.32;4.47;;;;;;;12.00;93.36;102207.94;7357593;19;20514;-64
2023/05/13 05:39:14;;;;;;;9.63;4.93;;;;;;;11.96;93.42;102206.53;7356545;19;20015;-65
2023/05/13 05:41:42;;;;;;;11.10;4.32;;;;;;;11.94;93.31;102207.59;7357110;19;20014;-64
2023/05/13 05:44:12;;;;;;;11.93;3.97;;;;;;;11.93;94.04;102211.22;7358058;19;20017;-66
2023/05/13 05:46:39;;;;;;;12.70;4.22;;;;;;;11.92;93.47;102218.28;7356959;19;20126;-63
2023/05/13 05:49:07;;;;;;;12.90;5.20;;;;;;;11.87;93.13;102212.56;7359809;19;20014;-64
2023/05/13 05:51:34;;;;;;;11.15;4.43;;;;;;;11.87;93.52;102202.03;7354916;19;20015;-64
2023/05/13 05:54:02;;;;;;;10.98;4.10;;;;;;;11.84;93.25;102201.41;7358112;19;20014;-65
2023/05/13 05:56:29;;;;;;;10.45;4.15;;;;;;;11.84;93.55;102204.88;7357233;19;20014;-64
2023/05/13 05:58:57;;;;;;;10.75;3.67;;;;;;;11.85;93.90;102208.38;7359693;19;20653;-65
2023/05/13 06:01:24;;;;;;;13.45;4.28;;;;;;;11.84;94.25;102206.69;7361317;19;20093;-64
2023/05/13 06:03:51;;;;;;;10.60;4.30;;;;;;;11.88;93.34;102213.41;7361445;19;20023;-64
2023/05/13 06:06:20;;;;;;;12.88;4.72;;;;;;;11.88;93.69;102203.69;7360978;19;20022;-64
2023/05/13 06:08:48;;;;;;;9.15;4.53;;;;;;;11.92;93.33;102205.09;7365364;19;20018;-64
2023/05/13 06:11:16;;;;;;;9.48;4.10;;;;;;;11.92;93.79;102215.66;7365283;19;20420;-65
2023/05/13 06:13:44;;;;;;;11.57;3.58;;;;;;;11.93;94.30;102212.06;7365735;19;20038;-64
2023/05/13 06:16:11;;;;;;;15.27;5.60;;;;;;;11.97;95.01;102223.19;7360301;19;20006;-65
2023/05/13 06:18:39;;;;;;;10.55;4.47;;;;;;;12.02;93.36;102223.66;7364341;19;20022;-63
2023/05/13 06:21:06;;;;;;;9.20;3.65;;;;;;;12.03;93.29;102221.84;7361745;19;20022;-64
2023/05/13 06:23:33;;;;;;;10.43;4.10;;;;;;;12.06;93.68;102221.56;7365369;19;20026;-64
2023/05/13 06:26:01;;;;;;;12.55;4.47;;;;;;;12.08;93.17;102219.66;7361407;19;20026;-66
2023/05/13 06:28:28;;;;;;;10.50;3.90;;;;;;;12.10;93.35;102218.56;7365588;19;20018;-64
2023/05/13 06:30:56;;;;;;;10.07;4.13;;;;;;;12.11;92.82;102214.13;7362057;19;20347;-65
2023/05/13 06:33:23;;;;;;;8.48;4.20;;;;;;;12.10;93.26;102229.09;7366471;19;20102;-65
2023/05/13 06:35:52;;;;;;;11.10;3.67;;;;;;;12.14;92.96;102227.88;7362601;19;20049;-69
2023/05/13 06:38:19;;;;;;;11.52;4.47;;;;;;;12.14;92.89;102225.25;7366218;19;20520;-64
2023/05/13 06:40:46;;;;;;;11.82;4.22;;;;;;;12.12;92.90;102234.25;7360158;19;20037;-65
2023/05/13 06:43:15;;;;;;;9.85;3.50;;;;;;;12.09;92.34;102231.91;7364925;19;20025;-63
2023/05/13 06:45:42;;;;;;;9.93;3.63;;;;;;;12.09;92.62;102231.91;7359211;19;20621;-65
2023/05/13 06:48:10;;;;;;;8.32;3.72;;;;;;;12.09;93.02;102239.81;7362658;19;20027;-65
2023/05/13 06:50:37;;;;;;;10.23;4.30;;;;;;;12.10;92.50;102233.53;7360369;19;20045;-64
2023/05/13 06:53:04;;;;;;;8.30;3.80;;;;;;;12.07;92.56;102234.66;7365021;19;20501;-64
2023/05/13 06:55:34;;;;;;;8.73;3.45;;;;;;;12.06;93.29;102237.41;7360138;19;20090;-65
2023/05/13 06:58:02;;;;;;;8.10;4.30;;;;;;;12.07;93.21;102237.28;7362305;19;20022;-64
2023/05/13 07:00:29;;;;;;;8.45;4.00;;;;;;;12.12;93.55;102244.81;7357821;19;20010;-64
2023/05/13 07:02:57;;;;;;;11.73;3.90;;;;;;;12.18;92.95;102242.50;7363906;19;20010;-64
2023/05/13 07:05:25;;;;;;;9.85;3.92;;;;;;;12.21;91.83;102246.69;7363814;19;20041;-64
2023/05/13 07:07:53;;;;;;;8.93;4.20;;;;;;;12.14;92.18;102251.63;7365898;19;20041;-64
2023/05/13 07:10:20;;;;;;;8.32;3.78;;;;;;;12.14;92.30;102248.97;7360006;19;20014;-64
2023/05/13 07:12:48;;;;;;;7.45;3.80;;;;;;;12.05;92.63;102247.13;7363904;19;20029;-64
2023/05/13 07:15:16;;;;;;;11.35;4.82;;;;;;;12.00;92.98;102236.09;7358811;19;20031;-64
2023/05/13 07:17:43;;;;;;;9.27;4.13;;;;;;;11.99;93.56;102237.91;7360668;19;20014;-66
2023/05/13 07:20:11;;;;;;;14.90;6.28;;;;;;;12.03;94.42;102237.66;7360234;19;20526;-65
2023/05/13 07:22:40;;;;;;;9.77;4.18;;;;;;;12.09;93.43;102237.16;7362673;19;20010;-64
2023/05/13 07:25:08;;;;;;;12.32;4.43;;;;;;;12.16;93.61;102246.22;7362046;19;21126;-65
2023/05/13 07:27:35;;;;;;;8.38;4.22;;;;;;;12.16;93.45;102246.22;7338521;19;20018;-65
2023/05/13 07:30:02;;;;;;;10.90;4.47;;;;;;;12.17;93.04;102247.91;7357161;19;20014;-65
2023/05/13 07:32:34;;;;;;;12.30;5.32;;;;;;;12.17;93.31;102248.75;7356308;19;20042;-64
2023/05/13 07:35:03;;;;;;;16.73;5.73;;;;;;;12.19;92.69;102257.34;7358021;19;20098;-65
2023/05/13 07:37:30;;;;;;;10.75;4.20;;;;;;;12.20;93.01;102245.00;7358873;19;20019;-66
2023/05/13 07:39:58;;;;;;;13.13;6.18;;;;;;;12.22;92.79;102251.00;7354043;19;20328;-65
2023/05/13 07:42:26;;;;;;;12.00;4.82;;;;;;;12.27;92.86;102259.38;7356425;19;20014;-64
2023/05/13 07:44:53;;;;;;;10.68;5.30;;;;;;;12.28;92.40;102261.88;7357260;19;20019;-64
2023/05/13 07:47:20;;;;;;;13.93;6.25;;;;;;;12.29;92.10;102255.63;7348136;19;20059;-63
2023/05/13 07:49:48;;;;;;;14.13;5.50;;;;;;;12.32;92.22;102263.31;7355007;19;20018;-63
2023/05/13 07:52:16;;;;;;;15.15;5.38;;;;;;;12.32;92.32;102251.91;7354931;19;20621;-64
2023/05/13 07:54:43;;;;;;;9.65;4.57;;;;;;;12.35;92.42;102256.91;7355571;19;20177;-64
2023/05/13 07:57:11;;;;;;;12.80;4.90;;;;;;;12.33;91.27;102261.50;7358273;19;21615;-64
2023/05/13 07:59:38;;;;;;;14.57;5.57;;;;;;;12.39;91.35;102269.72;7354401;19;20038;-65
2023/05/13 08:02:06;;;;;;;13.07;5.20;;;;;;;12.39;91.31;102268.91;7354345;19;20010;-65
2023/05/13 08:04:36;;;;;;;17.02;5.57;;;;;;;12.37;91.99;102270.84;7353180;19;20102;-65
2023/05/13 08:07:04;;;;;;;12.75;5.22;;;;;;;12.40;92.13;102266.13;7360394;19;20026;-65
2023/05/13 08:09:31;;;;;;;10.40;4.95;;;;;;;12.47;91.34;102268.25;7356754;19;20141;-64
2023/05/13 08:11:59;;;;;;;12.00;5.47;;;;;;;12.51;91.24;102267.03;7358443;19;20011;-65
2023/05/13 08:14:26;;;;;;;8.65;4.45;;;;;;;12.57;91.35;102269.16;7359925;19;20014;-65
2023/05/13 08:16:53;;;;;;;9.95;5.18;;;;;;;12.63;90.95;102269.47;7356366;19;20014;-65
2023/05/13 08:19:21;;;;;;;11.30;5.13;;;;;;;12.67;91.03;102260.31;7356626;19;20324;-65
2023/05/13 08:21:48;;;;;;;9.77;4.72;;;;;;;12.71;91.08;102268.81;7360673;19;20018;-65
2023/05/13 08:24:16;;;;;;;9.57;5.28;;;;;;;12.71;89.54;102264.38;7360783;19;20073;-64
2023/05/13 08:26:43;;;;;;;9.60;4.70;;;;;;;12.77;89.36;102265.66;7361780;19;20011;-65
2023/05/13 08:29:14;;;;;;;9.68;4.47;;;;;;;12.76;89.50;102263.97;7360328;19;20010;-65
2023/05/13 08:31:41;;;;;;;10.30;4.50;;;;;;;12.73;89.42;102265.09;7359557;19;21794;-65
2023/05/13 08:34:09;;;;;;;13.15;5.05;;;;;;;12.72;89.46;102255.47;7360763;19;20870;-64
2023/05/13 08:36:36;;;;;;;11.20;5.22;;;;;;;12.77;89.70;102276.22;7360388;19;20115;-65
2023/05/13 08:39:04;;;;;;;8.57;4.38;;;;;;;12.78;89.92;102267.31;7360855;19;20451;-64
2023/05/13 08:41:33;;;;;;;9.30;5.15;;;;;;;12.80;90.34;102271.50;7361517;19;20063;-64
2023/05/13 08:44:05;;;;;;;12.80;5.10;;;;;;;12.85;90.62;102268.44;7357642;19;20514;-66
2023/05/13 08:46:34;;;;;;;16.23;5.88;;;;;;;12.88;89.98;102270.84;7355157;19;20021;-64
2023/05/13 08:49:03;;;;;;;11.13;5.10;;;;;;;12.94;89.84;102272.97;7355699;19;20094;-63
2023/05/13 08:51:30;;;;;;;14.43;5.00;;;;;;;12.97;89.15;102277.13;7361264;19;20014;-64
2023/05/13 08:54:01;;;;;;;11.48;5.03;;;;;;;12.95;89.79;102273.81;7359571;19;20118;-64
2023/05/13 08:56:28;;;;;;;30.30;6.20;;;;;;;12.92;90.35;102279.34;7359916;19;20043;-67
2023/05/13 08:58:56;;;;;;;11.73;5.05;;;;;;;12.80;89.91;102281.22;7357864;19;20017;-64
2023/05/13 09:01:25;;;;;;;10.52;5.03;;;;;;;12.83;90.10;102273.88;7357751;19;20011;-65
2023/05/13 09:04:05;;;;;;;11.48;5.10;;;;;;;12.80;90.57;102275.94;7360921;19;20323;-65
2023/05/13 09:06:32;;;;;;;10.60;5.50;;;;;;;12.79;91.23;102276.94;7361306;19;20022;-65
2023/05/13 09:09:01;;;;;;;12.70;5.10;;;;;;;12.82;90.58;102277.50;7363520;19;20055;-65
2023/05/13 09:11:29;;;;;;;11.40;5.15;;;;;;;12.85;90.25;102281.66;7358167;19;20042;-63
2023/05/13 09:13:58;;;;;;;11.85;5.18;;;;;;;12.86;90.85;102278.91;7357356;19;20037;-64
2023/05/13 09:16:27;;;;;;;49.25;6.78;;;;;;;12.88;90.45;102264.72;7359717;19;20018;-65
2023/05/13 09:19:01;;;;;;;17.30;6.00;;;;;;;12.91;90.10;102273.22;7356314;19;20026;-64
2023/05/13 09:21:34;;;;;;;11.88;5.22;;;;;;;12.97;89.26;102263.94;7356160;19;20019;-65
2023/05/13 09:24:07;;;;;;;8.73;4.70;;;;;;;12.98;88.61;102266.44;7359648;19;20010;-64
2023/05/13 09:26:37;;;;;;;11.10;5.65;;;;;;;13.02;88.27;102267.00;7357561;19;20120;-64
2023/05/13 09:29:24;;;;;;;13.20;5.80;;;;;;;13.06;88.63;102269.25;7355327;19;21779;-65
2023/05/13 09:31:53;;;;;;;12.43;4.68;;;;;;;13.07;88.75;102268.28;7356886;19;20014;-64
2023/05/13 09:34:34;;;;;;;13.38;5.38;;;;;;;13.11;89.73;102274.13;7364511;19;20019;-66
2023/05/13 09:37:04;;;;;;;13.45;6.43;;;;;;;13.15;88.87;102281.72;7365031;19;20042;-65
2023/05/13 09:39:38;;;;;;;10.77;5.20;;;;;;;13.11;88.76;102284.69;7364538;19;20029;-64
2023/05/13 09:42:15;;;;;;;14.63;5.35;;;;;;;13.11;89.36;102280.28;7366449;19;20015;-65
2023/05/13 09:44:45;;;;;;;12.02;5.47;;;;;;;13.09;89.38;102281.38;7362268;19;21710;-64
2023/05/13 09:47:13;;;;;;;14.00;5.25;;;;;;;13.12;89.82;102286.41;7361798;19;20041;-65
2023/05/13 09:49:42;;;;;;;10.50;4.65;;;;;;;13.14;89.61;102281.84;7364628;19;20422;-64
2023/05/13 09:52:10;;;;;;;10.30;6.38;;;;;;;13.12;89.35;102281.13;7366948;19;20688;-64
2023/05/13 09:54:38;;;;;;;12.65;5.57;;;;;;;13.08;89.88;102274.41;7365817;19;20026;-64
2023/05/13 09:57:05;;;;;;;11.77;5.80;;;;;;;13.11;90.37;102275.00;7364612;19;20381;-64
2023/05/13 09:59:33;;;;;;;14.98;5.82;;;;;;;13.16;89.14;102272.78;7363381;19;20011;-64
2023/05/13 10:02:05;;;;;;;17.98;6.03;;;;;;;13.20;89.67;102268.94;7364146;19;20139;-65
2023/05/13 10:04:32;;;;;;;13.98;5.68;;;;;;;13.23;89.33;102275.75;7364859;19;20708;-64
2023/05/13 10:07:02;;;;;;;14.10;6.03;;;;;;;13.25;89.49;102274.66;7368821;19;20027;-66
2023/05/13 10:09:36;;;;;;;15.80;6.53;;;;;;;13.23;89.31;102276.59;7365126;19;20015;-63
2023/05/13 10:12:07;;;;;;;13.02;5.50;;;;;;;13.27;88.85;102264.78;7368057;19;20125;-65
2023/05/13 10:14:36;;;;;;;12.90;5.45;;;;;;;13.30;89.46;102268.13;7362074;19;20800;-65
2023/05/13 10:17:05;;;;;;;12.70;5.88;;;;;;;13.28;88.87;102279.66;7364978;19;20102;-65
2023/05/13 10:19:33;;;;;;;11.52;5.80;;;;;;;13.28;89.36;102271.72;7359984;19;20022;-65
2023/05/13 10:22:01;;;;;;;13.27;5.30;;;;;;;13.26;88.93;102272.81;7364575;19;20407;-65
2023/05/13 10:24:30;;;;;;;10.55;5.80;;;;;;;13.25;88.74;102266.72;7365088;19;20629;-64
2023/05/13 10:27:01;;;;;;;13.80;5.68;;;;;;;13.28;89.27;102266.44;7362549;19;20019;-65
2023/05/13 10:29:28;;;;;;;14.65;5.55;;;;;;;13.34;89.94;102253.66;7361447;19;20022;-65
2023/05/13 10:31:57;;;;;;;14.70;5.53;;;;;;;13.44;90.34;102257.16;7361755;19;20107;-64
2023/05/13 10:34:26;;;;;;;11.80;6.03;;;;;;;13.50;87.71;102260.09;7362315;19;20014;-65
2023/05/13 10:37:09;;;;;;;12.57;5.47;;;;;;;13.51;88.16;102251.19;7365024;19;20011;-65
2023/05/13 10:39:46;;;;;;;10.50;5.55;;;;;;;13.49;87.87;102257.59;7362338;19;20010;-64
2023/05/13 10:42:25;;;;;;;13.48;5.80;;;;;;;13.47;88.10;102254.22;7362721;19;20047;-66
2023/05/13 10:44:54;;;;;;;12.77;6.30;;;;;;;13.48;87.53;102258.56;7357608;19;20694;-65
2023/05/13 10:47:22;;;;;;;12.00;5.85;;;;;;;13.52;88.11;102254.66;7361105;19;20024;-65
2023/05/13 10:49:51;;;;;;;14.27;6.10;;;;;;;13.56;88.53;102264.03;7361237;19;20046;-64
2023/05/13 10:52:19;;;;;;;14.48;6.07;;;;;;;13.64;87.82;102258.88;7363640;19;20568;-65
2023/05/13 10:55:00;;;;;;;9.57;5.60;;;;;;;13.69;86.33;102265.41;7362697;19;20014;-65
2023/05/13 10:57:29;;;;;;;12.02;5.65;;;;;;;13.75;86.48;102257.91;7361555;19;20125;-64
2023/05/13 11:00:17;;;;;;;13.75;5.70;;;;;;;13.76;85.97;102251.66;7359775;19;20025;-66
2023/05/13 11:02:45;;;;;;;15.07;7.18;;;;;;;13.69;86.35;102257.50;7362744;19;20109;-65
2023/05/13 11:05:20;;;;;;;17.55;6.35;;;;;;;13.63;86.25;102271.25;7363112;19;21656;-67
2023/05/13 11:07:56;;;;;;;11.77;6.40;;;;;;;13.64;86.71;102261.50;7359276;19;20022;-64
2023/05/13 11:10:29;;;;;;;15.43;6.38;;;;;;;13.64;86.29;102261.50;7363179;19;20022;-64
2023/05/13 11:13:07;;;;;;;12.18;5.65;;;;;;;13.69;86.15;102264.59;7362342;19;20493;-64
2023/05/13 11:15:44;;;;;;;13.70;5.63;;;;;;;13.70;86.29;102261.81;7358216;19;20007;-65
2023/05/13 11:18:12;;;;;;;11.65;6.05;;;;;;;13.72;86.62;102256.34;7363543;19;20037;-65
2023/05/13 11:20:43;;;;;;;13.70;5.78;;;;;;;13.75;86.29;102266.69;7358360;19;20045;-64
2023/05/13 11:23:19;;;;;;;15.18;5.97;;;;;;;13.77;86.20;102267.38;7363001;19;20023;-64
2023/05/13 11:26:09;;;;;;;17.67;5.90;;;;;;;13.76;86.58;102264.88;7360149;19;20038;-65